createdAt,value
2019-05-26T00:00:04.767Z,72.2
2019-05-26T00:15:05.003Z,72.8
2019-05-26T00:30:04.974Z,72.8
2019-05-26T00:45:04.774Z,72.7
2019-05-26T01:00:04.521Z,72.9
2019-05-26T01:15:04.744Z,73
2019-05-26T01:30:04.753Z,72.8
2019-05-26T01:45:04.523Z,73.2
2019-05-26T02:00:04.371Z,73.2
2019-05-26T02:15:04.642Z,72.6
2019-05-26T02:30:04.113Z,72.9
2019-05-26T02:45:04.540Z,72.9
2019-05-26T03:00:04.839Z,72.9
2019-05-26T03:15:04.167Z,73.2
2019-05-26T03:30:04.237Z,72.9
2019-05-26T03:45:04.510Z,72.6
2019-05-26T04:00:04.287Z,73
2019-05-26T04:15:05.052Z,72.9
2019-05-26T04:30:04.807Z,73
2019-05-26T04:45:04.554Z,72.6
2019-05-26T05:00:04.982Z,73.4
2019-05-26T05:15:04.796Z,73.6
2019-05-26T05:30:04.309Z,74
2019-05-26T05:45:05.057Z,74
2019-05-26T06:00:04.842Z,74.3
2019-05-26T06:15:04.131Z,74.4
2019-05-26T06:30:04.675Z,74.7
2019-05-26T06:45:05.057Z,74.3
2019-05-26T07:00:04.898Z,74.8
2019-05-26T07:15:04.206Z,74.9
2019-05-26T07:30:04.667Z,75.7
2019-05-26T07:45:04.478Z,75.1
2019-05-26T08:00:04.796Z,75.8
2019-05-26T08:15:04.553Z,75.2
2019-05-26T08:30:04.978Z,72.2
2019-05-26T08:45:04.303Z,69.8
2019-05-26T09:00:05.063Z,68.5
2019-05-26T09:15:04.367Z,67.9
2019-05-26T09:30:04.378Z,69.5
2019-05-26T09:45:04.166Z,64.3
2019-05-26T10:00:04.413Z,64.3
2019-05-26T10:15:04.166Z,64.7
2019-05-26T10:30:04.888Z,63.6
2019-05-26T10:45:04.155Z,63.1
2019-05-26T11:00:04.472Z,62.2
2019-05-26T11:15:04.735Z,62.5
2019-05-26T11:30:04.678Z,62
2019-05-26T11:45:04.426Z,61.7
2019-05-26T12:00:04.731Z,61
2019-05-26T12:15:04.186Z,59.8
2019-05-26T12:30:04.716Z,59.6
2019-05-26T12:45:05.036Z,57.9
2019-05-26T13:00:04.439Z,57.5
2019-05-26T13:15:06.686Z,57.2
2019-05-26T13:30:04.260Z,0
2019-05-26T13:45:04.086Z,55.4
2019-05-26T14:00:04.338Z,54.8
2019-05-26T14:15:04.279Z,54.9
2019-05-26T14:30:04.824Z,54.9
2019-05-26T14:45:04.584Z,54.8
2019-05-26T15:00:04.446Z,54.8
2019-05-26T15:15:04.802Z,54.2
2019-05-26T15:30:04.785Z,54.6
2019-05-26T15:45:04.207Z,54.2
2019-05-26T16:00:04.318Z,54.1
2019-05-26T16:15:09.772Z,54.3
2019-05-26T16:30:04.326Z,54.6
2019-05-26T16:45:04.306Z,55.1
2019-05-26T17:00:05.050Z,55
2019-05-26T17:15:04.912Z,55
2019-05-26T17:45:09.254Z,54.9
2019-05-26T18:00:04.608Z,54.5
2019-05-26T18:15:04.812Z,54.8
2019-05-26T18:30:04.793Z,54.7
2019-05-26T18:45:04.584Z,55.4
2019-05-26T19:00:04.890Z,55.5
2019-05-26T19:15:04.734Z,55.9
2019-05-26T19:30:04.288Z,56
2019-05-26T19:45:05.051Z,56.2
2019-05-26T20:00:04.371Z,56.9
2019-05-26T20:15:04.686Z,56.9
2019-05-26T20:30:04.240Z,57.3
2019-05-26T20:45:04.569Z,58.7
2019-05-26T21:00:05.035Z,59.3
2019-05-26T21:15:04.375Z,59.4
2019-05-26T21:30:04.426Z,60
2019-05-26T21:45:04.727Z,60
2019-05-26T22:00:04.490Z,60.9
2019-05-26T22:15:04.254Z,61.1
2019-05-26T22:30:04.244Z,61.5
2019-05-26T22:45:05.461Z,62.1
2019-05-26T23:00:04.221Z,62.5
2019-05-26T23:15:04.485Z,63.1
2019-05-26T23:30:04.427Z,63.4
2019-05-26T23:45:04.735Z,63.4
